Flight Track Log - Related Links

Times and Time Zones

All times are in EDT time to prevent confusion due to time zone crossing. See the RPA3180 flight status page for this flight to view local times or setup timezone preferences in your user account.

Time Position Orientation Groundspeed Altitude Reporting Facility
EDT Latitude Longitude Course Direction KTS MPH feet Rate Location/Type
Sat 08:50:20 AM 36.1167 -86.6833 64° Northeast 145 167 1,300  Level Nashville TRACON
Sat 08:51:02 AM 36.0833 -86.6667 158° South 175 201 2,300 2,625 Climbing Nashville TRACON
Sat 08:51:56 AM 36.0500 -86.6333 141° Southeast 205 236 5,500 3,037 Climbing Nashville TRACON
Sat 08:52:00 AM 36.1629 -86.2857 76° East  Level FlightAware Approximate
Sat 08:53:00 AM 36.1866 -86.1602 80° East  Level FlightAware Approximate
Sat 08:53:44 AM 36.1108 -86.4956 61° Northeast 264 304 10,500  Level Memphis Center
Sat 08:54:00 AM 36.2122 -86.0362 64° Northeast  Level FlightAware Approximate
Sat 08:54:44 AM 36.1375 -86.4094 69° East 258 297 12,700  Level Memphis Center
Sat 08:55:00 AM 36.2585 -85.9205 64° Northeast  Level FlightAware Approximate
Sat 08:55:44 AM 36.1694 -86.3078 69° East 287 330 14,400  Level Memphis Center
Sat 08:56:44 AM 36.1994 -86.2008 71° East 317 365 17,300 2,667 Climbing Memphis Center
Sat 08:58:26 AM 36.2544 -86.0217 69° East 341 392 21,600 2,503 Climbing Indianapolis Center
Sat 08:59:27 AM 36.2900 -85.9097 68° East 346 398 24,100 2,164 Climbing Indianapolis Center
Sat 09:00:28 AM 36.3308 -85.7858 68° East 352 405 26,000 1,756 Climbing Indianapolis Center
Sat 09:01:30 AM 36.3711 -85.6706 67° East 362 417 27,700 1,512 Climbing Indianapolis Center
Sat 09:02:31 AM 36.4103 -85.5522 68° East 369 425 29,100 1,525 Climbing Indianapolis Center
Sat 09:03:32 AM 36.4497 -85.4317 68° East 374 430 30,800 1,672 Climbing Indianapolis Center
Sat 09:04:33 AM 36.4897 -85.3111 68° East 376 433 32,500 1,561 Climbing Indianapolis Center
Sat 09:05:35 AM 36.5278 -85.1953 68° East 363 418 34,000 1,220 Climbing Indianapolis Center
Sat 09:06:36 AM 36.5647 -85.0811 68° East 356 410 35,000 492 Climbing Indianapolis Center
Sat 09:07:37 AM 36.6044 -84.9603 68° East 375 432 35,000  Level Indianapolis Center
Sat 09:08:39 AM 36.6472 -84.8286 68° East 405 466 35,000  Level Indianapolis Center
Sat 09:09:40 AM 36.6917 -84.6947 67° East 416 479 35,000  Level Indianapolis Center
Sat 09:10:42 AM 36.7331 -84.5594 69° East 418 481 35,000  Level Indianapolis Center
Sat 09:11:43 AM 36.7828 -84.4108 67° East 412 474 35,000  Level Indianapolis Center
Sat 09:12:44 AM 36.8261 -84.2756 68° East 415 478 35,000  Level Indianapolis Center
Sat 09:13:46 AM 36.8689 -84.1411 68° East 416 479 35,000  Level Indianapolis Center
Sat 09:14:47 AM 36.9119 -84.0067 68° East 416 479 35,000  Level Indianapolis Center
Sat 09:15:49 AM 36.9533 -83.8731 69° East 413 475 35,000  Level Indianapolis Center
Sat 09:16:50 AM 36.9981 -83.7392 67° East 415 478 35,000  Level Indianapolis Center
Sat 09:17:52 AM 37.0389 -83.6047 69° East 412 474 35,000  Level Indianapolis Center
Sat 09:18:53 AM 37.0867 -83.4503 69° East 403 464 35,000  Level Indianapolis Center
Sat 09:19:55 AM 37.1272 -83.3208 69° East 398 458 35,000  Level Indianapolis Center
Sat 09:20:56 AM 37.1681 -83.1914 68° East 394 453 35,000  Level Indianapolis Center
Sat 09:21:58 AM 37.2083 -83.0608 69° East 398 458 35,000  Level Indianapolis Center
Sat 09:22:59 AM 37.2481 -82.9269 70° East 404 465 35,000  Level Indianapolis Center
Sat 09:24:01 AM 37.2886 -82.7944 69° East 404 465 35,000  Level Indianapolis Center
Sat 09:25:03 AM 37.3292 -82.6628 69° East 402 463 35,000  Level Indianapolis Center
Sat 09:26:04 AM 37.3686 -82.5297 70° East 404 465 35,000  Level Indianapolis Center
Sat 09:27:06 AM 37.4083 -82.3989 69° East 401 461 35,000  Level Indianapolis Center
Sat 09:28:07 AM 37.4472 -82.2672 70° East 400 460 35,000  Level Indianapolis Center
Sat 09:29:09 AM 37.4939 -82.1117 69° East 404 465 35,000  Level Indianapolis Center
Sat 09:30:10 AM 37.5333 -81.9803 69° East 401 461 35,000  Level Indianapolis Center
Sat 09:31:12 AM 37.5719 -81.8469 70° East 403 464 35,000  Level Indianapolis Center
Sat 09:32:13 AM 37.6122 -81.7144 69° East 403 464 35,000  Level Indianapolis Center
Sat 09:33:15 AM 37.6500 -81.5800 70° East 406 467 35,000  Level Indianapolis Center
Sat 09:34:16 AM 37.6906 -81.4358 70° East 406 467 35,000  Level Indianapolis Center
Sat 09:35:18 AM 37.7292 -81.3044 70° East 408 470 35,000  Level Indianapolis Center
Sat 09:35:38 AM 37.7411 -81.2567 72° East 399 459 35,000  Level Washington Center
Sat 09:36:38 AM 37.7789 -81.1200 71° East 399 459 35,000  Level Washington Center
Sat 09:37:37 AM 37.7892 -80.9842 84° East 394 453 35,000  Level Washington Center
Sat 09:38:37 AM 37.7975 -80.8456 86° East 389 448 35,000  Level Washington Center
Sat 09:39:38 AM 37.8050 -80.7172 86° East 389 448 35,000  Level Washington Center
Sat 09:40:38 AM 37.8150 -80.5811 85° East 389 448 35,000  Level Washington Center
Sat 09:41:39 AM 37.8250 -80.4397 85° East 394 453 35,000  Level Washington Center
Sat 09:42:39 AM 37.8328 -80.2983 86° East 394 453 35,000  Level Washington Center
Sat 09:43:37 AM 37.8428 -80.1464 85° East 399 459 35,000  Level Washington Center
Sat 09:44:38 AM 37.8522 -80.0050 85° East 399 459 35,000 -248 Level Washington Center
Sat 09:45:38 AM 37.8614 -79.8636 85° East 404 465 34,500 -992 Descending Washington Center
Sat 09:46:39 AM 37.8686 -79.7219 86° East 404 465 33,000 -763 Descending Washington Center
Sat 09:47:36 AM 37.8797 -79.5778 84° East 404 465 33,000  Level Washington Center
Sat 09:48:37 AM 37.8864 -79.4361 87° East 404 465 33,000  Level Washington Center
Sat 09:49:38 AM 37.8947 -79.3047 85° East 404 465 33,000  Level Washington Center
Sat 09:50:38 AM 37.9033 -79.1578 86° East 404 465 33,000  Level Washington Center
Sat 09:51:37 AM 37.9158 -79.0136 84° East 404 465 33,000  Level Washington Center
Sat 09:52:37 AM 37.9325 -78.8722 81° East 404 465 33,000  Level Washington Center
Sat 09:53:38 AM 37.9489 -78.7281 82° East 404 465 33,000  Level Washington Center
Sat 09:54:39 AM 37.9697 -78.5656 81° East 414 476 33,000 -50 Level Washington Center
Sat 09:55:39 AM 37.9856 -78.4239 82° East 414 476 32,900 -513 Descending Washington Center
Sat 09:56:36 AM 38.0033 -78.2797 81° East 414 476 32,000 -864 Descending Washington Center
Sat 09:57:37 AM 38.0186 -78.1539 81° East 414 476 31,200 -885 Descending Washington Center
Sat 09:58:38 AM 38.0778 -78.0239 60° Northeast 401 461 30,200 -942 Descending Washington Center
Sat 09:59:38 AM 38.1406 -77.8992 57° Northeast 406 467 29,300 -605 Descending Washington Center
Sat 10:00:37 AM 38.2014 -77.7769 58° Northeast 406 467 29,000 -150 Descending Washington Center
Sat 10:01:38 AM 38.2619 -77.6517 58° Northeast 406 467 29,000  Level Washington Center
Sat 10:02:38 AM 38.3244 -77.5264 58° Northeast 411 473 29,000 -600 Level Washington Center
Sat 10:03:38 AM 38.3869 -77.4008 58° Northeast 411 473 27,800 -1,488 Descending Washington Center
Sat 10:04:39 AM 38.4450 -77.2803 58° Northeast 411 473 26,000 -1,736 Descending Washington Center
Sat 10:05:39 AM 38.5028 -77.1650 57° Northeast 400 460 24,300 -1,017 Descending Washington Center
Sat 10:06:37 AM 38.5564 -77.0492 59° Northeast 383 441 24,000 -151 Descending Washington Center
Sat 10:07:38 AM 38.6119 -76.9386 57° Northeast 378 435 24,000  Level Washington Center
Sat 10:08:38 AM 38.6653 -76.8228 59° Northeast 378 435 24,000 -545 Level Washington Center
Sat 10:09:39 AM 38.7144 -76.6878 65° Northeast 378 435 22,900 -1,150 Descending Washington Center
Sat 10:10:38 AM 38.7406 -76.5658 75° East 368 423 21,700 -1,150 Descending Washington Center
Sat 10:11:39 AM 38.7600 -76.4703 75° East 358 412 20,600 -1,388 Descending Washington Center
Sat 10:12:39 AM 38.7858 -76.3400 76° East 353 406 18,900 -1,513 Descending Washington Center
Sat 10:13:38 AM 38.8094 -76.2231 75° East 347 399 17,600 -1,563 Descending Washington Center
Sat 10:14:38 AM 38.8414 -76.1086 70° East 342 394 15,800 -1,350 Descending Washington Center
Sat 10:15:38 AM 38.8647 -75.9994 75° East 331 381 14,900 -446 Descending Washington Center
Sat 10:16:39 AM 38.8839 -75.8822 78° East 325 374 14,900  Level Washington Center
Sat 10:17:37 AM 38.9339 -75.7972 53° Northeast 319 367 14,900 -586 Level Washington Center
Sat 10:19:33 AM 39.1000 -75.7333 17° North 313 360 13,200 -1,125 Descending Philadelphia TRACON
Sat 10:20:33 AM 39.2000 -75.7000 14° North 311 358 11,600 -1,476 Descending Philadelphia TRACON
Sat 10:21:39 AM 39.2667 -75.6500 30° Northeast 286 329 10,100 -800 Descending Philadelphia TRACON
Sat 10:22:33 AM 39.3333 -75.6167 21° North 268 308 10,000 -263 Descending Philadelphia TRACON
Sat 10:23:33 AM 39.4000 -75.5833 21° North 286 329 9,600 -857 Descending Philadelphia TRACON
Sat 10:24:39 AM 39.4833 -75.6167 343° North 279 321 8,200 -1,238 Descending Philadelphia TRACON
Sat 10:25:39 AM 39.5500 -75.6833 322° Northwest 287 330 7,000 -1,143 Descending Philadelphia TRACON
Sat 10:26:45 AM 39.6167 -75.7333 330° Northwest 249 287 5,800 -1,000 Descending Philadelphia TRACON
Sat 10:27:33 AM 39.6667 -75.7500 346° North 237 273 5,100 -889 Descending Philadelphia TRACON
Sat 10:28:33 AM 39.7167 -75.7500 360° North 200 230 4,200 -550 Descending Philadelphia TRACON
Sat 10:29:33 AM 39.7500 -75.7000 49° Northeast 170 196 4,000 -50 Descending Philadelphia TRACON
Sat 10:30:33 AM 39.7833 -75.6500 49° Northeast 169 194 4,100  Climbing Philadelphia TRACON
Sat 10:31:28 AM 39.8000 -75.6000 67° East 164 189 4,000 -50 Descending Philadelphia TRACON
Sat 10:32:33 AM 39.8167 -75.5333 72° East 166 191 4,000 -336 Level Philadelphia TRACON
Sat 10:33:33 AM 39.8167 -75.4833 90° East 166 191 3,300 -843 Descending Philadelphia TRACON
Sat 10:34:34 AM 39.8333 -75.4167 72° East 171 197 2,300 -984 Descending Philadelphia TRACON

Login

Don't have an account? Register now (free) for customized features, flight alerts, and more!